sensor_id;sensor_type;location;lat;lon;timestamp;temperature;humidity
32839;DHT22;19182;41.820;12.808;2023-07-29T00:02:08;18.20;99.90
32839;DHT22;19182;41.820;12.808;2023-07-29T00:04:35;18.20;99.90
32839;DHT22;19182;41.820;12.808;2023-07-29T00:07:02;18.10;99.90
32839;DHT22;19182;41.820;12.808;2023-07-29T00:09:28;18.10;99.90
32839;DHT22;19182;41.820;12.808;2023-07-29T00:11:55;18.10;99.90
32839;DHT22;19182;41.820;12.808;2023-07-29T00:14:22;17.90;99.90
32839;DHT22;19182;41.820;12.808;2023-07-29T00:16:49;17.70;99.90
32839;DHT22;19182;41.820;12.808;2023-07-29T00:19:16;17.70;99.90
32839;DHT22;19182;41.820;12.808;2023-07-29T00:21:43;17.80;99.90
32839;DHT22;19182;41.820;12.808;2023-07-29T00:24:10;17.70;99.90
32839;DHT22;19182;41.820;12.808;2023-07-29T00:26:35;17.70;99.90
32839;DHT22;19182;41.820;12.808;2023-07-29T00:29:02;17.60;99.90
32839;DHT22;19182;41.820;12.808;2023-07-29T00:31:28;17.60;99.90
32839;DHT22;19182;41.820;12.808;2023-07-29T00:33:55;17.70;99.90
32839;DHT22;19182;41.820;12.808;2023-07-29T00:36:24;17.60;99.90
32839;DHT22;19182;41.820;12.808;2023-07-29T00:38:51;17.40;99.90
32839;DHT22;19182;41.820;12.808;2023-07-29T00:41:19;17.50;99.90
32839;DHT22;19182;41.820;12.808;2023-07-29T00:43:47;17.60;99.90
32839;DHT22;19182;41.820;12.808;2023-07-29T00:46:13;17.60;99.90
32839;DHT22;19182;41.820;12.808;2023-07-29T00:48:40;17.70;99.90
32839;DHT22;19182;41.820;12.808;2023-07-29T00:51:06;17.60;99.90
32839;DHT22;19182;41.820;12.808;2023-07-29T00:53:33;17.70;99.90
32839;DHT22;19182;41.820;12.808;2023-07-29T00:56:00;17.50;99.90
32839;DHT22;19182;41.820;12.808;2023-07-29T00:58:27;17.70;99.90
32839;DHT22;19182;41.820;12.808;2023-07-29T01:00:54;17.70;99.90
32839;DHT22;19182;41.820;12.808;2023-07-29T01:03:22;17.60;99.90
32839;DHT22;19182;41.820;12.808;2023-07-29T01:11:18;17.60;99.90
32839;DHT22;19182;41.820;12.808;2023-07-29T01:13:57;17.60;99.90
32839;DHT22;19182;41.820;12.808;2023-07-29T01:16:31;17.60;99.90
32839;DHT22;19182;41.820;12.808;2023-07-29T01:18:58;17.60;99.90
32839;DHT22;19182;41.820;12.808;2023-07-29T01:21:27;17.60;99.90
32839;DHT22;19182;41.820;12.808;2023-07-29T01:23:57;17.60;99.90
32839;DHT22;19182;41.820;12.808;2023-07-29T01:26:24;17.60;99.90
32839;DHT22;19182;41.820;12.808;2023-07-29T01:28:50;17.70;99.90
32839;DHT22;19182;41.820;12.808;2023-07-29T01:31:16;17.70;99.90
32839;DHT22;19182;41.820;12.808;2023-07-29T01:34:10;17.70;99.90
32839;DHT22;19182;41.820;12.808;2023-07-29T01:36:37;17.70;99.90
32839;DHT22;19182;41.820;12.808;2023-07-29T01:39:06;17.60;99.90
32839;DHT22;19182;41.820;12.808;2023-07-29T01:41:34;17.70;99.90
32839;DHT22;19182;41.820;12.808;2023-07-29T01:44:01;17.60;99.90
32839;DHT22;19182;41.820;12.808;2023-07-29T01:46:27;17.60;99.90
32839;DHT22;19182;41.820;12.808;2023-07-29T01:48:54;17.70;99.90
32839;DHT22;19182;41.820;12.808;2023-07-29T01:51:21;17.80;99.90
32839;DHT22;19182;41.820;12.808;2023-07-29T01:53:47;17.70;99.90
32839;DHT22;19182;41.820;12.808;2023-07-29T01:56:14;17.50;99.90
32839;DHT22;19182;41.820;12.808;2023-07-29T01:58:39;17.60;99.90
32839;DHT22;19182;41.820;12.808;2023-07-29T02:01:05;17.70;99.90
32839;DHT22;19182;41.820;12.808;2023-07-29T02:03:32;17.70;99.90
32839;DHT22;19182;41.820;12.808;2023-07-29T02:05:57;17.80;99.90
32839;DHT22;19182;41.820;12.808;2023-07-29T02:08:23;17.80;99.90
32839;DHT22;19182;41.820;12.808;2023-07-29T02:10:49;17.70;99.90
32839;DHT22;19182;41.820;12.808;2023-07-29T02:13:17;17.80;99.90
32839;DHT22;19182;41.820;12.808;2023-07-29T02:15:44;17.80;99.90
32839;DHT22;19182;41.820;12.808;2023-07-29T02:18:11;17.80;99.90
32839;DHT22;19182;41.820;12.808;2023-07-29T02:20:36;17.80;99.90
32839;DHT22;19182;41.820;12.808;2023-07-29T02:23:03;17.70;99.90
32839;DHT22;19182;41.820;12.808;2023-07-29T02:25:29;17.70;99.90
32839;DHT22;19182;41.820;12.808;2023-07-29T02:27:54;17.80;99.90
32839;DHT22;19182;41.820;12.808;2023-07-29T02:30:21;17.80;99.90
32839;DHT22;19182;41.820;12.808;2023-07-29T02:32:46;17.70;99.90
32839;DHT22;19182;41.820;12.808;2023-07-29T02:35:12;17.70;99.90
32839;DHT22;19182;41.820;12.808;2023-07-29T02:37:38;17.70;99.90
32839;DHT22;19182;41.820;12.808;2023-07-29T02:40:05;17.70;99.90
32839;DHT22;19182;41.820;12.808;2023-07-29T02:42:31;17.70;99.90
32839;DHT22;19182;41.820;12.808;2023-07-29T02:44:57;17.70;99.90
32839;DHT22;19182;41.820;12.808;2023-07-29T02:47:23;17.70;99.90
32839;DHT22;19182;41.820;12.808;2023-07-29T02:49:49;17.80;99.90
32839;DHT22;19182;41.820;12.808;2023-07-29T02:52:16;17.70;99.90
32839;DHT22;19182;41.820;12.808;2023-07-29T02:54:43;17.60;99.90
32839;DHT22;19182;41.820;12.808;2023-07-29T02:57:10;17.60;99.90
32839;DHT22;19182;41.820;12.808;2023-07-29T02:59:37;17.60;99.90
32839;DHT22;19182;41.820;12.808;2023-07-29T03:02:04;17.60;99.90
32839;DHT22;19182;41.820;12.808;2023-07-29T03:04:31;17.60;99.90
32839;DHT22;19182;41.820;12.808;2023-07-29T03:06:58;17.60;99.90
32839;DHT22;19182;41.820;12.808;2023-07-29T03:09:25;17.70;99.90
32839;DHT22;19182;41.820;12.808;2023-07-29T03:11:51;17.70;99.90
32839;DHT22;19182;41.820;12.808;2023-07-29T03:14:19;17.70;99.90
32839;DHT22;19182;41.820;12.808;2023-07-29T03:16:45;17.70;99.90
32839;DHT22;19182;41.820;12.808;2023-07-29T03:19:11;17.70;99.90
32839;DHT22;19182;41.820;12.808;2023-07-29T03:21:37;17.60;99.90
32839;DHT22;19182;41.820;12.808;2023-07-29T03:24:04;17.60;99.90
32839;DHT22;19182;41.820;12.808;2023-07-29T03:26:30;17.60;99.90
32839;DHT22;19182;41.820;12.808;2023-07-29T03:28:55;17.60;99.90
32839;DHT22;19182;41.820;12.808;2023-07-29T03:31:21;17.50;99.90
32839;DHT22;19182;41.820;12.808;2023-07-29T03:33:48;17.50;99.90
32839;DHT22;19182;41.820;12.808;2023-07-29T03:36:15;17.50;99.90
32839;DHT22;19182;41.820;12.808;2023-07-29T03:38:41;17.60;99.90
32839;DHT22;19182;41.820;12.808;2023-07-29T03:41:10;17.60;99.90
32839;DHT22;19182;41.820;12.808;2023-07-29T03:43:36;16.50;99.90
32839;DHT22;19182;41.820;12.808;2023-07-29T03:46:02;17.60;99.90
32839;DHT22;19182;41.820;12.808;2023-07-29T03:48:27;17.40;99.90
32839;DHT22;19182;41.820;12.808;2023-07-29T03:50:53;17.20;99.90
32839;DHT22;19182;41.820;12.808;2023-07-29T03:53:20;17.10;99.90
32839;DHT22;19182;41.820;12.808;2023-07-29T03:55:45;17.10;99.90
32839;DHT22;19182;41.820;12.808;2023-07-29T03:58:12;17.10;99.90
32839;DHT22;19182;41.820;12.808;2023-07-29T04:00:38;17.10;99.90
32839;DHT22;19182;41.820;12.808;2023-07-29T04:03:04;17.20;99.90
32839;DHT22;19182;41.820;12.808;2023-07-29T04:05:31;17.30;99.90
32839;DHT22;19182;41.820;12.808;2023-07-29T04:07:57;17.40;99.90
32839;DHT22;19182;41.820;12.808;2023-07-29T04:10:22;17.30;99.90
32839;DHT22;19182;41.820;12.808;2023-07-29T04:12:50;17.10;99.90
32839;DHT22;19182;41.820;12.808;2023-07-29T04:15:16;16.90;99.90
32839;DHT22;19182;41.820;12.808;2023-07-29T04:17:41;16.90;99.90
32839;DHT22;19182;41.820;12.808;2023-07-29T04:20:07;17.00;99.90
32839;DHT22;19182;41.820;12.808;2023-07-29T04:22:33;17.00;99.90
32839;DHT22;19182;41.820;12.808;2023-07-29T04:24:59;16.90;99.90
32839;DHT22;19182;41.820;12.808;2023-07-29T04:27:24;17.00;99.90
32839;DHT22;19182;41.820;12.808;2023-07-29T04:29:50;17.00;99.90
32839;DHT22;19182;41.820;12.808;2023-07-29T04:32:16;17.00;99.90
32839;DHT22;19182;41.820;12.808;2023-07-29T04:34:42;17.00;99.90
32839;DHT22;19182;41.820;12.808;2023-07-29T04:37:08;17.00;99.90
32839;DHT22;19182;41.820;12.808;2023-07-29T04:39:34;16.90;99.90
32839;DHT22;19182;41.820;12.808;2023-07-29T04:41:59;17.00;99.90
32839;DHT22;19182;41.820;12.808;2023-07-29T04:44:26;17.10;99.90
32839;DHT22;19182;41.820;12.808;2023-07-29T04:46:52;17.00;99.90
32839;DHT22;19182;41.820;12.808;2023-07-29T04:49:17;16.90;99.90
32839;DHT22;19182;41.820;12.808;2023-07-29T04:51:43;17.00;99.90
32839;DHT22;19182;41.820;12.808;2023-07-29T04:54:09;17.20;99.90
32839;DHT22;19182;41.820;12.808;2023-07-29T04:56:35;17.20;99.90
32839;DHT22;19182;41.820;12.808;2023-07-29T04:59:00;17.40;99.90
32839;DHT22;19182;41.820;12.808;2023-07-29T05:01:26;17.50;99.90
32839;DHT22;19182;41.820;12.808;2023-07-29T05:03:51;17.70;99.90
32839;DHT22;19182;41.820;12.808;2023-07-29T05:06:17;17.70;99.90
32839;DHT22;19182;41.820;12.808;2023-07-29T05:08:44;18.00;99.90
32839;DHT22;19182;41.820;12.808;2023-07-29T05:11:10;18.10;99.90
32839;DHT22;19182;41.820;12.808;2023-07-29T05:13:36;18.30;99.90
32839;DHT22;19182;41.820;12.808;2023-07-29T05:16:03;18.40;99.90
32839;DHT22;19182;41.820;12.808;2023-07-29T05:18:29;18.60;99.90
32839;DHT22;19182;41.820;12.808;2023-07-29T05:20:55;18.70;99.90
32839;DHT22;19182;41.820;12.808;2023-07-29T05:23:21;18.90;99.90
32839;DHT22;19182;41.820;12.808;2023-07-29T05:25:48;19.00;99.90
32839;DHT22;19182;41.820;12.808;2023-07-29T05:28:13;19.20;99.90
32839;DHT22;19182;41.820;12.808;2023-07-29T05:30:39;19.30;99.90
32839;DHT22;19182;41.820;12.808;2023-07-29T05:33:07;19.50;99.90
32839;DHT22;19182;41.820;12.808;2023-07-29T05:35:33;19.60;99.90
32839;DHT22;19182;41.820;12.808;2023-07-29T05:37:59;19.80;99.90
32839;DHT22;19182;41.820;12.808;2023-07-29T05:40:25;19.90;99.90
32839;DHT22;19182;41.820;12.808;2023-07-29T05:42:50;20.00;99.90
32839;DHT22;19182;41.820;12.808;2023-07-29T05:45:17;20.20;99.90
32839;DHT22;19182;41.820;12.808;2023-07-29T05:47:43;20.30;99.90
32839;DHT22;19182;41.820;12.808;2023-07-29T05:50:09;20.50;99.90
32839;DHT22;19182;41.820;12.808;2023-07-29T05:52:36;20.60;99.90
32839;DHT22;19182;41.820;12.808;2023-07-29T05:55:02;20.80;99.90
32839;DHT22;19182;41.820;12.808;2023-07-29T05:57:28;20.90;99.90
32839;DHT22;19182;41.820;12.808;2023-07-29T05:59:53;21.10;99.90
32839;DHT22;19182;41.820;12.808;2023-07-29T06:02:19;21.10;99.90
32839;DHT22;19182;41.820;12.808;2023-07-29T06:04:45;21.30;99.90
32839;DHT22;19182;41.820;12.808;2023-07-29T06:07:10;21.40;99.90
32839;DHT22;19182;41.820;12.808;2023-07-29T06:09:36;21.60;99.90
32839;DHT22;19182;41.820;12.808;2023-07-29T06:12:02;21.70;99.90
32839;DHT22;19182;41.820;12.808;2023-07-29T06:14:28;21.90;99.90
32839;DHT22;19182;41.820;12.808;2023-07-29T06:16:54;22.10;99.90
32839;DHT22;19182;41.820;12.808;2023-07-29T06:19:20;22.20;99.90
32839;DHT22;19182;41.820;12.808;2023-07-29T06:21:46;22.40;99.90
32839;DHT22;19182;41.820;12.808;2023-07-29T06:24:12;19.00;99.90
32839;DHT22;19182;41.820;12.808;2023-07-29T06:26:38;22.80;99.90
32839;DHT22;19182;41.820;12.808;2023-07-29T06:29:04;23.00;99.90
32839;DHT22;19182;41.820;12.808;2023-07-29T06:31:30;23.20;99.90
32839;DHT22;19182;41.820;12.808;2023-07-29T06:33:55;23.30;99.90
32839;DHT22;19182;41.820;12.808;2023-07-29T06:36:21;23.50;99.90
32839;DHT22;19182;41.820;12.808;2023-07-29T06:38:48;23.60;99.90
32839;DHT22;19182;41.820;12.808;2023-07-29T06:41:14;23.80;99.90
32839;DHT22;19182;41.820;12.808;2023-07-29T06:43:40;24.00;99.90
32839;DHT22;19182;41.820;12.808;2023-07-29T06:46:06;24.30;99.90
32839;DHT22;19182;41.820;12.808;2023-07-29T06:48:32;24.90;99.90
32839;DHT22;19182;41.820;12.808;2023-07-29T06:50:59;25.80;99.90
32839;DHT22;19182;41.820;12.808;2023-07-29T06:53:27;26.50;99.90
32839;DHT22;19182;41.820;12.808;2023-07-29T06:55:54;27.10;99.90
32839;DHT22;19182;41.820;12.808;2023-07-29T06:58:20;27.50;99.90
32839;DHT22;19182;41.820;12.808;2023-07-29T07:00:46;27.70;99.90
32839;DHT22;19182;41.820;12.808;2023-07-29T07:03:14;27.90;99.90
32839;DHT22;19182;41.820;12.808;2023-07-29T07:05:40;27.90;99.90
32839;DHT22;19182;41.820;12.808;2023-07-29T07:08:07;28.00;99.90
32839;DHT22;19182;41.820;12.808;2023-07-29T07:10:33;27.90;99.90
32839;DHT22;19182;41.820;12.808;2023-07-29T07:12:59;27.90;99.90
32839;DHT22;19182;41.820;12.808;2023-07-29T07:15:26;28.00;99.90
32839;DHT22;19182;41.820;12.808;2023-07-29T07:17:53;28.00;99.90
32839;DHT22;19182;41.820;12.808;2023-07-29T07:20:18;28.10;99.90
32839;DHT22;19182;41.820;12.808;2023-07-29T07:22:44;28.10;99.90
32839;DHT22;19182;41.820;12.808;2023-07-29T07:25:10;28.10;99.90
32839;DHT22;19182;41.820;12.808;2023-07-29T07:27:36;28.10;99.90
32839;DHT22;19182;41.820;12.808;2023-07-29T07:30:04;28.10;99.90
32839;DHT22;19182;41.820;12.808;2023-07-29T07:32:30;28.20;99.90
32839;DHT22;19182;41.820;12.808;2023-07-29T07:34:56;28.30;99.90
32839;DHT22;19182;41.820;12.808;2023-07-29T07:37:21;28.30;99.90
32839;DHT22;19182;41.820;12.808;2023-07-29T07:39:47;28.30;99.90
32839;DHT22;19182;41.820;12.808;2023-07-29T07:42:13;28.40;99.90
32839;DHT22;19182;41.820;12.808;2023-07-29T07:44:38;28.50;99.90
32839;DHT22;19182;41.820;12.808;2023-07-29T07:47:05;28.80;99.90
32839;DHT22;19182;41.820;12.808;2023-07-29T07:49:31;28.90;99.90
32839;DHT22;19182;41.820;12.808;2023-07-29T07:51:57;29.00;99.90
32839;DHT22;19182;41.820;12.808;2023-07-29T07:54:24;29.00;99.90
32839;DHT22;19182;41.820;12.808;2023-07-29T07:56:51;29.10;99.90
32839;DHT22;19182;41.820;12.808;2023-07-29T07:59:16;29.20;99.90
32839;DHT22;19182;41.820;12.808;2023-07-29T08:01:43;29.40;99.90
32839;DHT22;19182;41.820;12.808;2023-07-29T08:04:10;29.60;99.90
32839;DHT22;19182;41.820;12.808;2023-07-29T08:06:36;29.70;99.90
32839;DHT22;19182;41.820;12.808;2023-07-29T08:09:02;29.80;99.90
32839;DHT22;19182;41.820;12.808;2023-07-29T08:11:28;29.70;99.90
32839;DHT22;19182;41.820;12.808;2023-07-29T08:13:54;29.90;99.90
32839;DHT22;19182;41.820;12.808;2023-07-29T08:16:21;30.10;99.90
32839;DHT22;19182;41.820;12.808;2023-07-29T08:18:48;30.10;99.90
32839;DHT22;19182;41.820;12.808;2023-07-29T08:21:13;30.20;99.90
32839;DHT22;19182;41.820;12.808;2023-07-29T08:23:39;30.30;99.90
32839;DHT22;19182;41.820;12.808;2023-07-29T08:26:06;30.40;99.90
32839;DHT22;19182;41.820;12.808;2023-07-29T08:28:35;30.50;99.90
32839;DHT22;19182;41.820;12.808;2023-07-29T08:31:00;30.70;99.90
32839;DHT22;19182;41.820;12.808;2023-07-29T08:33:27;29.40;99.90
32839;DHT22;19182;41.820;12.808;2023-07-29T08:35:53;30.60;99.90
32839;DHT22;19182;41.820;12.808;2023-07-29T08:38:20;30.50;99.90
32839;DHT22;19182;41.820;12.808;2023-07-29T08:43:35;30.90;99.90
32839;DHT22;19182;41.820;12.808;2023-07-29T08:46:03;31.10;99.90
32839;DHT22;19182;41.820;12.808;2023-07-29T08:48:35;31.10;99.90
32839;DHT22;19182;41.820;12.808;2023-07-29T08:51:04;31.10;99.90
32839;DHT22;19182;41.820;12.808;2023-07-29T08:53:31;31.10;99.90
32839;DHT22;19182;41.820;12.808;2023-07-29T08:55:57;31.20;99.90
32839;DHT22;19182;41.820;12.808;2023-07-29T08:58:23;31.30;99.90
32839;DHT22;19182;41.820;12.808;2023-07-29T09:00:50;31.40;99.90
32839;DHT22;19182;41.820;12.808;2023-07-29T09:03:17;31.60;99.90
32839;DHT22;19182;41.820;12.808;2023-07-29T09:05:43;31.60;99.90
32839;DHT22;19182;41.820;12.808;2023-07-29T09:08:09;31.80;99.90
32839;DHT22;19182;41.820;12.808;2023-07-29T09:10:36;32.00;99.90
32839;DHT22;19182;41.820;12.808;2023-07-29T09:13:03;32.00;99.90
32839;DHT22;19182;41.820;12.808;2023-07-29T09:15:31;32.10;99.90
32839;DHT22;19182;41.820;12.808;2023-07-29T09:17:57;32.10;99.90
32839;DHT22;19182;41.820;12.808;2023-07-29T09:20:27;32.30;99.90
32839;DHT22;19182;41.820;12.808;2023-07-29T09:22:54;32.30;99.90
32839;DHT22;19182;41.820;12.808;2023-07-29T09:25:28;32.50;99.90
32839;DHT22;19182;41.820;12.808;2023-07-29T09:28:00;32.00;99.90
32839;DHT22;19182;41.820;12.808;2023-07-29T09:30:27;32.10;99.90
32839;DHT22;19182;41.820;12.808;2023-07-29T09:33:05;32.40;99.90
32839;DHT22;19182;41.820;12.808;2023-07-29T09:35:34;32.70;99.90
32839;DHT22;19182;41.820;12.808;2023-07-29T09:38:00;32.90;99.90
32839;DHT22;19182;41.820;12.808;2023-07-29T09:40:25;32.80;99.90
32839;DHT22;19182;41.820;12.808;2023-07-29T09:42:53;32.80;99.90
32839;DHT22;19182;41.820;12.808;2023-07-29T09:45:24;33.20;99.90
32839;DHT22;19182;41.820;12.808;2023-07-29T09:47:51;33.40;99.90
32839;DHT22;19182;41.820;12.808;2023-07-29T09:50:17;33.20;99.90
32839;DHT22;19182;41.820;12.808;2023-07-29T09:52:44;33.10;99.90
32839;DHT22;19182;41.820;12.808;2023-07-29T09:55:13;33.20;99.90
32839;DHT22;19182;41.820;12.808;2023-07-29T09:57:43;33.40;99.90
32839;DHT22;19182;41.820;12.808;2023-07-29T10:00:11;33.30;99.90
32839;DHT22;19182;41.820;12.808;2023-07-29T10:02:42;33.30;99.90
32839;DHT22;19182;41.820;12.808;2023-07-29T10:05:08;33.40;99.90
32839;DHT22;19182;41.820;12.808;2023-07-29T10:07:37;33.60;99.90
32839;DHT22;19182;41.820;12.808;2023-07-29T10:10:04;33.70;99.90
32839;DHT22;19182;41.820;12.808;2023-07-29T10:12:31;33.80;99.90
32839;DHT22;19182;41.820;12.808;2023-07-29T10:15:02;33.80;99.90
32839;DHT22;19182;41.820;12.808;2023-07-29T10:17:30;33.40;99.90
32839;DHT22;19182;41.820;12.808;2023-07-29T10:19:59;33.30;99.90
32839;DHT22;19182;41.820;12.808;2023-07-29T10:22:28;33.40;99.90
32839;DHT22;19182;41.820;12.808;2023-07-29T10:24:58;33.70;99.90
32839;DHT22;19182;41.820;12.808;2023-07-29T10:27:25;33.90;99.30
32839;DHT22;19182;41.820;12.808;2023-07-29T10:29:55;34.00;99.90
32839;DHT22;19182;41.820;12.808;2023-07-29T10:32:25;34.10;99.60
32839;DHT22;19182;41.820;12.808;2023-07-29T10:34:53;34.20;98.10
32839;DHT22;19182;41.820;12.808;2023-07-29T10:37:19;34.10;97.60
32839;DHT22;19182;41.820;12.808;2023-07-29T10:39:55;34.20;97.20
32839;DHT22;19182;41.820;12.808;2023-07-29T10:42:21;34.10;96.20
32839;DHT22;19182;41.820;12.808;2023-07-29T10:44:49;34.30;96.00
32839;DHT22;19182;41.820;12.808;2023-07-29T10:47:18;34.40;95.30
32839;DHT22;19182;41.820;12.808;2023-07-29T10:49:44;34.40;93.70
32839;DHT22;19182;41.820;12.808;2023-07-29T10:52:14;34.40;94.90
32839;DHT22;19182;41.820;12.808;2023-07-29T10:54:46;34.60;94.50
32839;DHT22;19182;41.820;12.808;2023-07-29T10:57:39;34.60;93.20
32839;DHT22;19182;41.820;12.808;2023-07-29T11:00:05;34.60;93.20
32839;DHT22;19182;41.820;12.808;2023-07-29T11:02:32;34.80;92.90
32839;DHT22;19182;41.820;12.808;2023-07-29T11:05:17;35.00;92.50
32839;DHT22;19182;41.820;12.808;2023-07-29T11:07:47;35.00;92.70
32839;DHT22;19182;41.820;12.808;2023-07-29T11:10:14;35.20;91.90
32839;DHT22;19182;41.820;12.808;2023-07-29T11:12:44;35.30;91.90
32839;DHT22;19182;41.820;12.808;2023-07-29T11:15:19;35.40;91.10
32839;DHT22;19182;41.820;12.808;2023-07-29T11:17:59;35.60;90.20
32839;DHT22;19182;41.820;12.808;2023-07-29T11:20:28;35.70;91.00
32839;DHT22;19182;41.820;12.808;2023-07-29T11:22:55;35.70;90.30
32839;DHT22;19182;41.820;12.808;2023-07-29T11:25:24;35.70;89.60
32839;DHT22;19182;41.820;12.808;2023-07-29T11:27:52;35.40;89.40
32839;DHT22;19182;41.820;12.808;2023-07-29T11:30:18;35.40;90.20
32839;DHT22;19182;41.820;12.808;2023-07-29T11:32:45;35.60;89.70
32839;DHT22;19182;41.820;12.808;2023-07-29T11:35:12;35.50;89.10
32839;DHT22;19182;41.820;12.808;2023-07-29T11:37:40;34.80;88.40
32839;DHT22;19182;41.820;12.808;2023-07-29T11:40:06;35.00;90.40
32839;DHT22;19182;41.820;12.808;2023-07-29T11:42:34;35.20;89.50
32839;DHT22;19182;41.820;12.808;2023-07-29T11:45:01;35.20;89.50
32839;DHT22;19182;41.820;12.808;2023-07-29T11:47:30;35.50;88.80
32839;DHT22;19182;41.820;12.808;2023-07-29T11:49:59;35.60;88.50
32839;DHT22;19182;41.820;12.808;2023-07-29T11:52:26;35.30;89.70
32839;DHT22;19182;41.820;12.808;2023-07-29T11:54:52;35.30;88.70
32839;DHT22;19182;41.820;12.808;2023-07-29T11:57:20;35.60;89.30
32839;DHT22;19182;41.820;12.808;2023-07-29T11:59:47;35.60;88.30
32839;DHT22;19182;41.820;12.808;2023-07-29T12:02:17;35.80;89.20
32839;DHT22;19182;41.820;12.808;2023-07-29T12:04:46;35.80;88.70
32839;DHT22;19182;41.820;12.808;2023-07-29T12:07:13;35.80;85.80
32839;DHT22;19182;41.820;12.808;2023-07-29T12:09:40;35.90;86.70
32839;DHT22;19182;41.820;12.808;2023-07-29T12:12:08;35.60;86.00
32839;DHT22;19182;41.820;12.808;2023-07-29T12:14:34;35.80;86.70
32839;DHT22;19182;41.820;12.808;2023-07-29T12:17:01;35.80;84.90
32839;DHT22;19182;41.820;12.808;2023-07-29T12:19:37;36.00;84.90
32839;DHT22;19182;41.820;12.808;2023-07-29T12:22:05;35.60;85.10
32839;DHT22;19182;41.820;12.808;2023-07-29T12:24:32;35.70;85.50
32839;DHT22;19182;41.820;12.808;2023-07-29T12:26:59;35.30;84.00
32839;DHT22;19182;41.820;12.808;2023-07-29T12:29:26;35.00;83.90
32839;DHT22;19182;41.820;12.808;2023-07-29T12:32:00;35.00;86.80
32839;DHT22;19182;41.820;12.808;2023-07-29T12:34:27;34.70;85.40
32839;DHT22;19182;41.820;12.808;2023-07-29T12:36:56;35.00;87.20
32839;DHT22;19182;41.820;12.808;2023-07-29T12:39:25;35.20;86.60
32839;DHT22;19182;41.820;12.808;2023-07-29T12:41:53;35.30;87.90
32839;DHT22;19182;41.820;12.808;2023-07-29T12:44:19;35.30;86.10
32839;DHT22;19182;41.820;12.808;2023-07-29T12:46:46;35.40;86.20
32839;DHT22;19182;41.820;12.808;2023-07-29T12:49:12;35.60;86.20
32839;DHT22;19182;41.820;12.808;2023-07-29T12:51:38;35.70;85.80
32839;DHT22;19182;41.820;12.808;2023-07-29T12:54:04;35.40;86.00
32839;DHT22;19182;41.820;12.808;2023-07-29T12:56:32;35.40;86.90
32839;DHT22;19182;41.820;12.808;2023-07-29T12:58:58;35.40;89.10
32839;DHT22;19182;41.820;12.808;2023-07-29T13:01:27;35.50;88.80
32839;DHT22;19182;41.820;12.808;2023-07-29T13:03:54;35.60;90.00
32839;DHT22;19182;41.820;12.808;2023-07-29T13:06:21;35.70;90.90
32839;DHT22;19182;41.820;12.808;2023-07-29T13:08:48;35.70;91.50
32839;DHT22;19182;41.820;12.808;2023-07-29T13:11:15;35.70;91.70
32839;DHT22;19182;41.820;12.808;2023-07-29T13:13:41;35.60;91.70
32839;DHT22;19182;41.820;12.808;2023-07-29T13:16:06;35.50;92.60
32839;DHT22;19182;41.820;12.808;2023-07-29T13:18:32;35.60;92.80
32839;DHT22;19182;41.820;12.808;2023-07-29T13:20:58;35.50;93.10
32839;DHT22;19182;41.820;12.808;2023-07-29T13:23:25;35.40;93.60
32839;DHT22;19182;41.820;12.808;2023-07-29T13:25:52;35.30;93.70
32839;DHT22;19182;41.820;12.808;2023-07-29T13:28:17;35.10;94.60
32839;DHT22;19182;41.820;12.808;2023-07-29T13:30:44;35.10;94.90
32839;DHT22;19182;41.820;12.808;2023-07-29T13:33:10;35.20;95.30
32839;DHT22;19182;41.820;12.808;2023-07-29T13:35:35;35.10;94.70
32839;DHT22;19182;41.820;12.808;2023-07-29T13:38:01;34.90;95.00
32839;DHT22;19182;41.820;12.808;2023-07-29T13:40:27;34.80;96.40
32839;DHT22;19182;41.820;12.808;2023-07-29T13:42:55;34.60;97.30
32839;DHT22;19182;41.820;12.808;2023-07-29T13:45:21;34.70;96.50
32839;DHT22;19182;41.820;12.808;2023-07-29T13:47:49;34.70;97.00
32839;DHT22;19182;41.820;12.808;2023-07-29T13:50:16;34.60;96.80
32839;DHT22;19182;41.820;12.808;2023-07-29T13:52:42;34.70;97.10
32839;DHT22;19182;41.820;12.808;2023-07-29T13:55:08;34.60;96.70
32839;DHT22;19182;41.820;12.808;2023-07-29T13:57:33;34.50;97.70
32839;DHT22;19182;41.820;12.808;2023-07-29T13:59:59;34.60;97.40
32839;DHT22;19182;41.820;12.808;2023-07-29T14:02:25;34.00;97.80
32839;DHT22;19182;41.820;12.808;2023-07-29T14:04:52;33.80;98.80
32839;DHT22;19182;41.820;12.808;2023-07-29T14:07:18;33.80;99.00
32839;DHT22;19182;41.820;12.808;2023-07-29T14:09:43;33.80;99.20
32839;DHT22;19182;41.820;12.808;2023-07-29T14:12:09;33.70;99.90
32839;DHT22;19182;41.820;12.808;2023-07-29T14:14:40;33.80;99.90
32839;DHT22;19182;41.820;12.808;2023-07-29T14:17:06;33.80;99.90
32839;DHT22;19182;41.820;12.808;2023-07-29T14:19:34;33.60;99.90
32839;DHT22;19182;41.820;12.808;2023-07-29T14:22:00;33.70;99.90
32839;DHT22;19182;41.820;12.808;2023-07-29T14:24:26;33.60;99.90
32839;DHT22;19182;41.820;12.808;2023-07-29T14:26:51;33.70;99.90
32839;DHT22;19182;41.820;12.808;2023-07-29T14:29:17;33.30;99.90
32839;DHT22;19182;41.820;12.808;2023-07-29T14:31:44;33.10;99.90
32839;DHT22;19182;41.820;12.808;2023-07-29T14:34:10;33.00;99.90
32839;DHT22;19182;41.820;12.808;2023-07-29T14:36:36;32.90;99.90
32839;DHT22;19182;41.820;12.808;2023-07-29T14:39:01;33.10;99.90
32839;DHT22;19182;41.820;12.808;2023-07-29T14:41:27;33.10;99.90
32839;DHT22;19182;41.820;12.808;2023-07-29T14:43:53;32.90;99.90
32839;DHT22;19182;41.820;12.808;2023-07-29T14:46:18;33.00;99.90
32839;DHT22;19182;41.820;12.808;2023-07-29T14:48:44;32.80;99.90
32839;DHT22;19182;41.820;12.808;2023-07-29T14:51:12;32.70;99.90
32839;DHT22;19182;41.820;12.808;2023-07-29T14:53:39;32.50;99.90
32839;DHT22;19182;41.820;12.808;2023-07-29T14:56:05;32.50;99.90
32839;DHT22;19182;41.820;12.808;2023-07-29T14:58:31;32.30;99.90
32839;DHT22;19182;41.820;12.808;2023-07-29T15:00:56;32.30;99.90
32839;DHT22;19182;41.820;12.808;2023-07-29T15:03:24;32.40;99.90
32839;DHT22;19182;41.820;12.808;2023-07-29T15:05:50;32.40;99.90
32839;DHT22;19182;41.820;12.808;2023-07-29T15:08:17;32.30;99.90
32839;DHT22;19182;41.820;12.808;2023-07-29T15:10:49;32.50;99.90
32839;DHT22;19182;41.820;12.808;2023-07-29T15:13:16;32.30;99.90
32839;DHT22;19182;41.820;12.808;2023-07-29T15:15:44;32.30;99.90
32839;DHT22;19182;41.820;12.808;2023-07-29T15:18:10;32.30;99.90
32839;DHT22;19182;41.820;12.808;2023-07-29T15:20:36;32.30;99.90
32839;DHT22;19182;41.820;12.808;2023-07-29T15:23:02;32.40;99.90